Time;durP1;ratioP1;P1;durP2;ratioP2;P2;SDS_P1;SDS_P2;PMS_P1;PMS_P2;Temp;Humidity;BMP_temperature;BMP_pressure;BME280_temperature;BME280_humidity;BME280_pressure;Samples;Min_cycle;Max_cycle;Signal;HPM_P1;HPM_P2
2023/04/25 00:01:48;;;;;;;4.40;3.90;;;8.50;99.90;;;9.19;100.00;97491.06;4926680;29;20502;-78
2023/04/25 00:04:17;;;;;;;5.00;3.60;;;8.50;99.90;;;9.19;100.00;97499.69;4925355;29;20972;-77
2023/04/25 00:06:46;;;;;;;5.80;4.23;;;8.50;99.90;;;9.22;100.00;97496.72;4926464;29;20473;-77
2023/04/25 00:09:15;;;;;;;5.47;4.30;;;8.50;99.90;;;9.24;100.00;97499.91;4926866;29;20533;-76
2023/04/25 00:11:44;;;;;;;5.57;3.87;;;8.50;99.90;;;9.25;100.00;97495.50;4926552;29;20526;-77
2023/04/25 00:14:12;;;;;;;4.60;3.90;;;8.50;99.90;;;9.27;100.00;97494.31;4927284;29;20466;-77
2023/04/25 00:16:43;;;;;;;5.10;3.50;;;8.50;99.90;;;9.26;100.00;97487.50;4923917;29;20498;-78
2023/04/25 00:19:12;;;;;;;7.07;5.30;;;8.50;99.90;;;9.25;100.00;97490.28;4920979;29;20497;-77
2023/04/25 00:21:46;;;;;;;4.33;3.67;;;8.60;99.90;;;9.24;100.00;97492.09;4923091;29;20474;-77
2023/04/25 00:24:15;;;;;;;4.73;4.00;;;8.60;99.90;;;9.24;100.00;97489.47;4922099;29;20976;-78
2023/04/25 00:26:43;;;;;;;5.97;4.20;;;8.60;99.90;;;9.24;100.00;97494.69;4923916;29;20466;-77
2023/04/25 00:29:12;;;;;;;5.77;5.13;;;8.60;99.90;;;9.26;100.00;97500.56;4923185;29;21118;-77
2023/04/25 00:31:40;;;;;;;6.20;4.27;;;8.60;99.90;;;9.26;100.00;97502.34;4921884;29;20563;-77
2023/04/25 00:34:09;;;;;;;5.97;4.20;;;8.60;99.90;;;9.21;100.00;97502.91;4927655;29;21028;-76
2023/04/25 00:36:37;;;;;;;5.53;4.20;;;8.60;99.90;;;9.20;100.00;97501.28;4926019;29;20560;-76
2023/04/25 00:39:08;;;;;;;9.43;5.47;;;8.60;99.90;;;9.17;100.00;97503.47;4926077;29;20881;-76
2023/04/25 00:41:36;;;;;;;6.73;4.50;;;8.60;99.90;;;9.16;100.00;97507.91;4926301;29;20608;-77
2023/04/25 00:44:07;;;;;;;7.70;4.50;;;8.60;99.90;;;9.17;100.00;97504.28;4926331;29;20766;-77
2023/04/25 00:46:37;;;;;;;5.70;4.53;;;8.50;99.90;;;9.18;100.00;97497.28;4926813;29;20489;-77
2023/04/25 00:49:06;;;;;;;5.83;4.10;;;8.50;99.90;;;9.15;100.00;97495.84;4926182;29;20501;-77
2023/04/25 00:51:35;;;;;;;5.93;5.00;;;8.50;99.90;;;9.12;100.00;97498.84;4926724;29;20474;-77
2023/04/25 00:54:04;;;;;;;6.37;4.60;;;8.50;99.90;;;9.14;100.00;97498.66;4925996;29;20704;-77
2023/04/25 00:56:34;;;;;;;9.60;5.60;;;8.50;99.90;;;9.14;100.00;97481.19;4927903;29;20785;-77
2023/04/25 00:59:02;;;;;;;7.03;4.70;;;8.50;99.90;;;9.16;100.00;97484.44;4923858;29;20494;-77
2023/04/25 01:01:32;;;;;;;6.57;4.40;;;8.50;99.90;;;9.20;100.00;97487.47;4921575;29;20544;-76
2023/04/25 01:04:02;;;;;;;5.13;3.93;;;8.50;99.90;;;9.20;100.00;97485.63;4919291;29;20916;-77
2023/04/25 01:06:32;;;;;;;7.37;5.17;;;8.50;99.90;;;9.19;100.00;97481.44;4922479;29;21021;-78
2023/04/25 01:09:02;;;;;;;8.67;4.90;;;8.50;99.90;;;9.18;100.00;97479.00;4921827;29;20516;-80
2023/04/25 01:11:31;;;;;;;6.20;4.90;;;8.50;99.90;;;9.17;100.00;97483.41;4921766;29;20512;-77
2023/04/25 01:14:01;;;;;;;8.27;4.63;;;8.50;99.90;;;9.14;100.00;97475.97;4924518;29;20550;-77
2023/04/25 01:16:31;;;;;;;6.30;4.50;;;8.50;99.90;;;9.14;100.00;97483.81;4922154;29;21235;-76
2023/04/25 01:19:00;;;;;;;7.80;4.87;;;8.50;99.90;;;9.11;100.00;97481.59;4921920;29;20477;-77
2023/04/25 01:21:30;;;;;;;5.67;4.43;;;8.50;99.90;;;9.13;100.00;97476.97;4923110;29;20474;-76
2023/04/25 01:23:59;;;;;;;6.83;4.77;;;8.50;99.90;;;9.13;100.00;97484.00;4920794;29;20474;-77
2023/04/25 01:26:28;;;;;;;9.20;5.37;;;8.50;99.90;;;9.14;100.00;97481.19;4924730;29;20474;-79
2023/04/25 01:28:58;;;;;;;7.53;5.00;;;8.50;99.90;;;9.13;100.00;97481.41;4922710;29;20537;-77
2023/04/25 01:31:29;;;;;;;9.80;4.77;;;8.50;99.90;;;9.13;100.00;97487.41;4922946;29;20985;-77
2023/04/25 01:33:58;;;;;;;8.30;5.10;;;8.50;99.90;;;9.13;100.00;97482.19;4922337;29;20590;-77
2023/04/25 01:36:26;;;;;;;7.33;4.90;;;8.50;99.90;;;9.10;100.00;97485.19;4925533;29;20537;-77
2023/04/25 01:38:57;;;;;;;6.90;4.93;;;8.50;99.90;;;9.12;100.00;97492.81;4922848;29;20553;-77
2023/04/25 01:41:26;;;;;;;6.73;5.03;;;8.40;99.90;;;9.15;100.00;97500.25;4922014;29;20912;-77
2023/04/25 01:43:55;;;;;;;8.37;5.17;;;8.50;99.90;;;9.14;100.00;97496.84;4920519;29;20554;-77
2023/04/25 01:46:24;;;;;;;7.70;4.40;;;8.50;99.90;;;9.14;100.00;97483.00;4922714;29;20475;-77
2023/04/25 01:48:52;;;;;;;6.90;4.40;;;8.50;99.90;;;9.13;100.00;97490.00;4923482;29;20569;-76
2023/04/25 01:51:22;;;;;;;6.63;5.07;;;8.50;99.90;;;9.12;100.00;97483.22;4923519;29;20563;-77
2023/04/25 01:53:53;;;;;;;7.40;4.43;;;8.50;99.90;;;9.12;100.00;97483.22;4921426;29;20538;-76
2023/04/25 01:56:24;;;;;;;6.63;5.13;;;8.50;99.90;;;9.13;100.00;97478.81;4921650;29;20502;-77
2023/04/25 01:58:55;;;;;;;7.37;4.77;;;8.50;99.90;;;9.15;100.00;97469.78;4922992;29;20471;-77
2023/04/25 02:01:25;;;;;;;8.77;5.33;;;8.50;99.90;;;9.15;100.00;97464.56;4922333;29;20498;-77
2023/04/25 02:03:54;;;;;;;6.00;4.43;;;8.50;99.90;;;9.07;100.00;97457.69;4922475;29;20554;-77
2023/04/25 02:06:25;;;;;;;6.83;4.57;;;8.50;99.90;;;9.03;100.00;97461.69;4922207;29;21253;-76
2023/04/25 02:08:55;;;;;;;5.43;4.53;;;8.40;99.90;;;9.01;100.00;97462.88;4922634;29;20479;-77
2023/04/25 02:11:26;;;;;;;5.83;4.57;;;8.30;99.90;;;8.98;100.00;97463.25;4921644;29;20472;-77
2023/04/25 02:13:55;;;;;;;9.17;4.30;;;8.30;99.90;;;8.93;100.00;97468.22;4924504;29;20470;-76
2023/04/25 02:16:26;;;;;;;7.00;4.67;;;8.30;99.90;;;8.89;100.00;97470.41;4924675;29;20561;-77
2023/04/25 02:18:55;;;;;;;5.50;4.30;;;8.30;99.90;;;8.89;100.00;97480.03;4924632;29;20462;-77
2023/04/25 02:21:26;;;;;;;6.30;4.97;;;8.20;99.90;;;8.87;100.00;97482.03;4924699;29;20546;-76
2023/04/25 02:23:55;;;;;;;5.30;4.37;;;8.20;99.90;;;8.86;100.00;97469.97;4922442;29;20476;-76
2023/04/25 02:26:27;;;;;;;6.50;5.07;;;8.20;99.90;;;8.84;100.00;97461.56;4922578;29;20999;-76
2023/04/25 02:28:58;;;;;;;5.17;4.50;;;8.20;99.90;;;8.81;100.00;97472.38;4921627;29;20501;-76
2023/04/25 02:31:28;;;;;;;6.60;5.10;;;8.20;99.90;;;8.78;100.00;97472.75;4923573;29;20463;-76
2023/04/25 02:33:59;;;;;;;11.07;6.47;;;8.20;99.90;;;8.75;100.00;97465.28;4924559;29;20545;-77
2023/04/25 02:36:32;;;;;;;6.47;5.23;;;8.10;99.90;;;8.72;100.00;97463.06;4925101;29;20549;-76
2023/04/25 02:39:02;;;;;;;6.33;4.43;;;8.10;99.90;;;8.68;100.00;97454.81;4924785;29;20517;-76
2023/04/25 02:41:34;;;;;;;9.90;4.33;;;8.00;99.90;;;8.69;100.00;97471.25;4925395;29;20458;-77
2023/04/25 02:44:04;;;;;;;5.03;4.33;;;8.00;99.90;;;8.70;100.00;97465.88;4924027;29;20859;-76
2023/04/25 02:46:34;;;;;;;6.53;5.13;;;8.00;99.90;;;8.71;100.00;97466.69;4925629;29;20558;-76
2023/04/25 02:49:08;;;;;;;5.60;4.53;;;8.00;99.90;;;8.68;100.00;97467.84;4923593;29;20490;-77
2023/04/25 02:51:37;;;;;;;8.03;5.50;;;8.00;99.90;;;8.68;100.00;97461.84;4924906;29;20490;-77
2023/04/25 02:54:09;;;;;;;9.27;5.27;;;7.90;99.90;;;8.69;100.00;97463.44;4924967;29;20462;-77
2023/04/25 02:56:40;;;;;;;6.47;4.70;;;8.00;99.90;;;8.66;100.00;97461.22;4923477;29;20601;-77
2023/04/25 02:59:09;;;;;;;7.90;5.70;;;8.00;99.90;;;8.67;100.00;97457.63;4924008;29;20470;-77
2023/04/25 03:01:38;;;;;;;7.77;5.23;;;8.00;99.90;;;8.69;100.00;97464.25;4924456;29;20513;-76
2023/04/25 03:04:08;;;;;;;6.60;4.53;;;7.90;99.90;;;8.66;100.00;97461.22;4922231;29;21063;-77
2023/04/25 03:06:37;;;;;;;6.30;5.40;;;7.90;99.90;;;8.61;100.00;97464.38;4923687;29;20478;-77
2023/04/25 03:09:08;;;;;;;4.23;3.83;;;7.90;99.90;;;8.58;100.00;97462.97;4928598;29;20592;-77
2023/04/25 03:11:40;;;;;;;8.77;5.03;;;7.90;99.90;;;8.62;100.00;97467.78;4928079;29;20537;-76
2023/04/25 03:14:09;;;;;;;5.67;4.40;;;7.90;99.90;;;8.61;100.00;97468.81;4925745;29;20514;-76
2023/04/25 03:16:39;;;;;;;6.70;5.00;;;7.90;99.90;;;8.63;100.00;97469.41;4927418;29;20593;-77
2023/04/25 03:19:08;;;;;;;7.73;5.00;;;7.90;99.90;;;8.63;100.00;97459.81;4927598;29;20553;-76
2023/04/25 03:21:38;;;;;;;5.87;4.40;;;8.00;99.90;;;8.63;100.00;97465.00;4927767;29;20472;-76
2023/04/25 03:24:08;;;;;;;9.40;4.77;;;7.90;99.90;;;8.63;100.00;97469.41;4925163;29;20520;-77
2023/04/25 03:26:38;;;;;;;9.23;4.87;;;8.00;99.90;;;8.63;100.00;97466.81;4924745;29;20475;-77
2023/04/25 03:29:09;;;;;;;6.00;5.00;;;7.90;99.90;;;8.63;100.00;97462.41;4927790;29;20526;-77
2023/04/25 03:31:39;;;;;;;6.00;4.57;;;7.90;99.90;;;8.63;100.00;97457.19;4923381;29;21016;-77
2023/04/25 03:34:09;;;;;;;5.87;4.90;;;7.90;99.90;;;8.65;100.00;97454.38;4923216;29;21035;-76
2023/04/25 03:36:39;;;;;;;6.37;4.97;;;7.90;99.90;;;8.66;100.00;97454.22;4925650;29;20469;-76
2023/04/25 03:39:09;;;;;;;10.97;5.10;;;8.00;99.90;;;8.64;100.00;97455.41;4923472;29;20501;-76
2023/04/25 03:41:40;;;;;;;6.97;5.30;;;8.00;99.90;;;8.64;100.00;97451.00;4926006;29;20470;-80
2023/04/25 03:44:09;;;;;;;8.57;5.27;;;7.90;99.90;;;8.63;100.00;97451.97;4924095;29;20541;-77
2023/04/25 03:46:38;;;;;;;9.93;5.40;;;7.90;99.90;;;8.63;100.00;97451.19;4923925;29;20475;-77
2023/04/25 03:49:08;;;;;;;4.80;4.00;;;7.90;99.90;;;8.58;100.00;97451.72;4927133;29;20497;-77
2023/04/25 03:51:37;;;;;;;6.57;5.13;;;7.90;99.90;;;8.59;100.00;97456.78;4925064;29;20471;-76
2023/04/25 03:54:07;;;;;;;8.30;5.30;;;7.90;99.90;;;8.56;100.00;97451.94;4924395;29;20475;-76
2023/04/25 03:56:37;;;;;;;6.73;5.20;;;7.90;99.90;;;8.58;100.00;97446.53;4923714;29;21746;-76
2023/04/25 03:59:09;;;;;;;6.03;4.97;;;7.90;99.90;;;8.53;100.00;97449.72;4924070;29;20949;-76
2023/04/25 04:01:39;;;;;;;9.10;5.37;;;7.90;99.90;;;8.54;100.00;97464.34;4924481;29;21315;-76
2023/04/25 04:04:08;;;;;;;7.27;4.73;;;7.90;99.90;;;8.52;100.00;97463.72;4923466;29;20556;-77
2023/04/25 04:06:38;;;;;;;7.97;5.60;;;7.90;99.90;;;8.55;100.00;97462.53;4923779;29;20470;-77
2023/04/25 04:09:10;;;;;;;6.40;5.17;;;7.90;99.90;;;8.56;100.00;97458.94;4922168;29;20552;-77
2023/04/25 04:11:40;;;;;;;6.27;4.73;;;7.90;99.90;;;8.58;100.00;97457.75;4924079;29;20463;-76
2023/04/25 04:14:12;;;;;;;12.30;5.50;;;7.90;99.90;;;8.58;100.00;97462.97;4923697;29;20471;-77
2023/04/25 04:16:41;;;;;;;6.90;5.50;;;7.90;99.90;;;8.57;100.00;97471.78;4924663;29;20573;-77
2023/04/25 04:19:11;;;;;;;14.60;5.40;;;7.90;99.90;;;8.56;100.00;97470.19;4923754;29;20463;-77
2023/04/25 04:21:41;;;;;;;11.20;6.00;;;7.90;99.90;;;8.54;100.00;97482.56;4928454;29;20561;-77
2023/04/25 04:24:12;;;;;;;8.07;6.10;;;7.90;99.90;;;8.58;100.00;97483.81;4928166;29;20454;-77
2023/04/25 04:26:44;;;;;;;9.37;5.70;;;7.90;99.90;;;8.57;100.00;97479.59;4923675;29;20540;-76
2023/04/25 04:29:20;;;;;;;7.37;5.77;;;7.90;99.90;;;8.58;100.00;97478.59;4922513;29;20463;-77
2023/04/25 04:31:50;;;;;;;8.80;5.77;;;7.90;99.90;;;8.58;100.00;97477.78;4925637;29;20569;-77
2023/04/25 04:34:20;;;;;;;8.03;5.87;;;7.90;99.90;;;8.57;100.00;97476.97;4927146;29;21025;-77
2023/04/25 04:36:50;;;;;;;8.97;6.00;;;7.90;99.90;;;8.59;100.00;97490.66;4925936;29;20482;-77
2023/04/25 04:39:20;;;;;;;8.60;5.43;;;7.90;99.90;;;8.62;100.00;97483.44;4925137;29;20478;-76
2023/04/25 04:41:49;;;;;;;8.60;5.40;;;7.90;99.90;;;8.62;100.00;97479.03;4923268;29;20474;-76
2023/04/25 04:44:21;;;;;;;7.23;5.03;;;7.90;99.90;;;8.62;100.00;97481.63;4926288;29;20464;-77
2023/04/25 04:46:51;;;;;;;7.43;5.80;;;7.90;99.90;;;8.65;100.00;97480.44;4926697;29;20868;-76
2023/04/25 04:49:22;;;;;;;6.37;5.13;;;7.90;99.90;;;8.61;100.00;97487.06;4925571;29;20466;-77
2023/04/25 04:51:52;;;;;;;11.10;5.73;;;7.90;99.90;;;8.62;100.00;97479.03;4924536;29;20513;-76
2023/04/25 04:54:22;;;;;;;8.37;5.93;;;7.90;99.90;;;8.65;100.00;97485.66;4926563;29;21256;-76
2023/04/25 04:56:53;;;;;;;8.87;5.67;;;7.90;99.90;;;8.60;100.00;97486.25;4924324;29;20492;-76
2023/04/25 04:59:24;;;;;;;9.50;5.93;;;7.90;99.90;;;8.57;100.00;97492.63;4923827;29;20471;-77
2023/04/25 05:01:55;;;;;;;10.53;6.37;;;7.80;99.90;;;8.55;100.00;97499.00;4923685;29;20958;-76
2023/04/25 05:04:25;;;;;;;8.43;5.63;;;7.80;99.90;;;8.56;100.00;97496.25;4923154;29;20470;-76
2023/04/25 05:06:54;;;;;;;8.67;5.87;;;7.80;99.90;;;8.58;100.00;97499.44;4920464;29;20974;-76
2023/04/25 05:09:25;;;;;;;10.00;5.43;;;7.80;99.90;;;8.62;100.00;97501.69;4922023;29;20469;-77
2023/04/25 05:11:55;;;;;;;8.27;5.40;;;7.90;99.90;;;8.63;100.00;97500.69;4922778;29;20498;-77
2023/04/25 05:14:26;;;;;;;7.30;4.50;;;7.90;99.90;;;8.65;100.00;97506.50;4918839;29;20561;-76
2023/04/25 05:16:56;;;;;;;7.53;5.93;;;7.90;99.90;;;8.67;100.00;97507.16;4923299;29;20481;-75
2023/04/25 05:19:25;;;;;;;7.53;5.17;;;7.90;99.90;;;8.69;100.00;97508.56;4923854;29;20471;-77
2023/04/25 05:21:54;;;;;;;9.53;5.50;;;7.90;99.90;;;8.68;100.00;97509.53;4920900;29;20521;-77
2023/04/25 05:24:25;;;;;;;8.97;6.03;;;8.00;99.90;;;8.66;100.00;97519.38;4922499;29;20458;-76
2023/04/25 05:26:56;;;;;;;11.07;5.87;;;8.00;99.90;;;8.69;100.00;97520.78;4922785;29;20971;-77
2023/04/25 05:29:27;;;;;;;6.70;5.07;;;7.90;99.90;;;8.72;100.00;97509.97;4920564;29;20594;-77
2023/04/25 05:31:57;;;;;;;16.60;8.03;;;7.90;99.90;;;8.69;100.00;97512.97;4920240;29;20525;-77
2023/04/25 05:34:28;;;;;;;9.80;5.50;;;8.00;99.90;;;8.70;100.00;97515.41;4921111;29;20485;-76
2023/04/25 05:36:58;;;;;;;7.93;6.13;;;8.00;99.90;;;8.71;100.00;97514.38;4918988;29;20461;-76
2023/04/25 05:39:28;;;;;;;8.83;5.70;;;8.00;99.90;;;8.73;100.00;97516.81;4920147;29;20502;-76
2023/04/25 05:41:58;;;;;;;6.57;4.93;;;8.10;99.90;;;8.73;100.00;97527.22;4922325;29;21017;-77
2023/04/25 05:44:30;;;;;;;11.17;7.60;;;8.10;99.90;;;8.72;100.00;97523.00;4921738;29;20813;-77
2023/04/25 05:46:59;;;;;;;9.13;5.70;;;8.10;99.90;;;8.72;100.00;97526.44;4924319;29;20521;-76
2023/04/25 05:49:30;;;;;;;7.93;6.10;;;8.00;99.90;;;8.75;100.00;97525.22;4924667;29;20470;-76
2023/04/25 05:52:01;;;;;;;8.33;5.80;;;8.10;99.90;;;8.77;100.00;97525.88;4923003;29;20625;-76
2023/04/25 05:54:30;;;;;;;6.63;5.53;;;8.10;99.90;;;8.80;100.00;97535.91;4923017;29;20470;-76
2023/04/25 05:57:00;;;;;;;10.90;6.97;;;8.10;99.90;;;8.78;100.00;97536.09;4924745;29;20466;-76
2023/04/25 05:59:31;;;;;;;8.40;5.77;;;8.10;99.90;;;8.76;100.00;97539.88;4925033;29;20742;-76
2023/04/25 06:02:01;;;;;;;7.53;5.67;;;8.10;99.90;;;8.75;100.00;97543.47;4924185;29;20478;-76
2023/04/25 06:04:32;;;;;;;10.00;6.57;;;8.10;99.90;;;8.78;100.00;97537.91;4924583;29;20463;-76
2023/04/25 06:07:02;;;;;;;7.90;5.30;;;8.10;99.90;;;8.81;100.00;97545.34;4924678;29;21321;-77
2023/04/25 06:09:31;;;;;;;7.27;5.20;;;8.00;99.90;;;8.83;100.00;97543.34;4926246;29;21035;-76
2023/04/25 06:12:01;;;;;;;8.30;5.60;;;8.00;99.90;;;8.85;100.00;97551.81;4923332;29;20705;-76
2023/04/25 06:14:33;;;;;;;6.60;5.00;;;8.10;99.90;;;8.87;100.00;97549.81;4924450;29;20454;-76
2023/04/25 06:17:06;;;;;;;7.87;5.20;;;8.10;99.90;;;8.87;100.00;97555.84;4925105;29;20458;-77
2023/04/25 06:19:36;;;;;;;9.70;6.23;;;8.10;99.90;;;8.86;100.00;97554.22;4924805;29;20814;-76
2023/04/25 06:22:07;;;;;;;7.40;5.80;;;8.20;99.90;;;8.87;100.00;97555.84;4923804;29;20499;-77
2023/04/25 06:24:38;;;;;;;11.53;6.30;;;8.20;99.90;;;8.87;100.00;97563.66;4923620;29;20568;-77
2023/04/25 06:27:08;;;;;;;7.00;5.80;;;8.20;99.90;;;8.87;100.00;97562.84;4924444;29;20465;-76
2023/04/25 06:29:40;;;;;;;8.27;5.60;;;8.20;99.90;;;8.86;100.00;97569.84;4919266;29;20578;-77
2023/04/25 06:32:10;;;;;;;10.13;6.40;;;8.20;99.90;;;8.82;100.00;97562.59;4919044;29;20538;-76
2023/04/25 06:34:39;;;;;;;7.97;5.50;;;8.20;99.90;;;8.80;100.00;97569.81;4921348;29;20550;-76
2023/04/25 06:37:08;;;;;;;9.77;5.77;;;8.20;99.90;;;8.76;100.00;97579.00;4920710;29;20466;-76
2023/04/25 06:39:37;;;;;;;53.83;29.13;;;8.10;99.90;;;8.70;100.00;97569.31;4917154;29;21004;-76
2023/04/25 06:42:10;;;;;;;8.87;6.40;;;8.10;99.90;;;8.65;100.00;97576.88;4923095;29;20993;-76
2023/04/25 06:44:43;;;;;;;8.23;5.77;;;8.10;99.90;;;8.65;100.00;97579.47;4919121;29;20478;-75
2023/04/25 06:47:14;;;;;;;10.93;7.03;;;8.00;99.90;;;8.65;100.00;97588.13;4922243;29;20468;-76
2023/04/25 06:49:45;;;;;;;10.40;6.40;;;8.00;99.90;;;8.61;100.00;97591.28;4923702;29;20469;-77
2023/04/25 06:52:17;;;;;;;8.50;6.53;;;7.90;99.90;;;8.56;100.00;97600.47;4925863;29;20565;-77
2023/04/25 06:54:47;;;;;;;11.17;5.80;;;7.90;99.90;;;8.50;100.00;97595.19;4927189;29;20474;-76
2023/04/25 06:57:18;;;;;;;8.67;5.27;;;7.80;99.90;;;8.55;100.00;97598.84;4919303;29;20482;-76
2023/04/25 06:59:50;;;;;;;8.40;5.43;;;7.90;99.90;;;8.58;100.00;97598.47;4924316;29;20523;-77
2023/04/25 07:02:22;;;;;;;9.57;5.90;;;7.90;99.90;;;8.59;100.00;97605.31;4919754;29;20513;-76
2023/04/25 07:04:52;;;;;;;10.33;5.33;;;7.90;99.90;;;8.56;100.00;97605.69;4920010;29;20939;-76
2023/04/25 07:07:23;;;;;;;12.53;6.20;;;7.90;99.90;;;8.47;100.00;97603.34;4921448;29;20481;-76
2023/04/25 07:09:53;;;;;;;10.43;6.30;;;7.90;99.90;;;8.48;100.00;97610.19;4918224;29;21092;-76
2023/04/25 07:12:24;;;;;;;29.97;13.50;;;7.80;99.90;;;8.48;100.00;97613.59;4919890;29;20854;-76
2023/04/25 07:14:56;;;;;;;8.20;6.10;;;7.90;99.90;;;8.42;100.00;97613.53;4923061;29;20481;-76
2023/04/25 07:17:26;;;;;;;9.37;5.03;;;7.80;99.90;;;8.46;100.00;97613.00;4921214;29;20470;-76
2023/04/25 07:19:56;;;;;;;9.20;6.50;;;7.80;99.90;;;8.50;100.00;97622.03;4920905;29;20470;-76
2023/04/25 07:22:27;;;;;;;17.97;6.07;;;7.90;99.90;;;8.48;100.00;97624.03;4921272;29;20466;-76
2023/04/25 07:24:58;;;;;;;11.00;6.20;;;7.90;99.90;;;8.49;100.00;97625.66;4920486;29;20830;-76
2023/04/25 07:27:28;;;;;;;11.50;6.77;;;7.90;99.90;;;8.56;100.00;97625.72;4921461;29;20466;-76
2023/04/25 07:29:58;;;;;;;13.43;6.80;;;7.90;99.90;;;8.56;100.00;97628.31;4919610;29;20470;-76
2023/04/25 07:32:29;;;;;;;17.70;6.83;;;7.90;99.90;;;8.66;100.00;97625.41;4921740;29;20499;-76
2023/04/25 07:34:59;;;;;;;15.00;6.70;;;8.00;99.90;;;8.70;100.00;97627.47;4922096;29;20473;-76
2023/04/25 07:37:28;;;;;;;8.33;5.73;;;8.10;99.90;;;8.72;100.00;97627.25;4924953;29;20885;-78
2023/04/25 07:39:57;;;;;;;13.40;6.90;;;8.10;99.90;;;8.66;100.00;97630.63;4923344;29;20503;-76
2023/04/25 07:42:28;;;;;;;11.97;7.50;;;8.10;99.90;;;8.74;100.00;97636.53;4923374;29;20498;-76
2023/04/25 07:44:59;;;;;;;21.37;7.57;;;8.00;99.90;;;8.86;100.00;97636.84;4923094;29;20572;-76
2023/04/25 07:47:28;;;;;;;15.40;10.90;;;8.20;99.90;;;8.90;100.00;97640.69;4921792;29;20481;-75
2023/04/25 07:49:58;;;;;;;16.10;6.60;;;8.30;99.90;;;8.93;100.00;97646.34;4924020;29;20461;-76
2023/04/25 07:52:27;;;;;;;14.70;7.10;;;8.40;99.90;;;8.92;100.00;97646.53;4922588;29;20502;-76
2023/04/25 07:54:58;;;;;;;12.17;6.83;;;8.40;99.90;;;8.85;100.00;97648.28;4926884;29;20868;-76
2023/04/25 07:57:28;;;;;;;13.37;6.50;;;8.30;99.90;;;8.89;100.00;97652.09;4927164;29;20473;-76
2023/04/25 07:59:59;;;;;;;13.73;6.80;;;8.40;99.90;;;8.93;100.00;97659.38;4927367;29;20470;-76
2023/04/25 08:02:29;;;;;;;18.13;6.30;;;8.30;99.90;;;8.94;100.00;97657.59;4924691;29;20546;-76
2023/04/25 08:04:59;;;;;;;14.33;6.20;;;8.30;99.90;;;8.89;100.00;97658.13;4924658;29;20569;-76
2023/04/25 08:07:30;;;;;;;9.60;5.67;;;8.30;99.90;;;8.93;100.00;97663.78;4924586;29;20466;-77
2023/04/25 08:10:01;;;;;;;12.70;6.17;;;8.30;99.90;;;8.82;100.00;97672.91;4924187;29;20459;-78
2023/04/25 08:12:30;;;;;;;13.07;6.30;;;8.30;99.90;;;8.83;100.00;97671.09;4925499;29;20502;-77
2023/04/25 08:15:01;;;;;;;17.93;6.30;;;8.30;99.90;;;8.81;100.00;97684.34;4924741;29;20474;-76
2023/04/25 08:17:31;;;;;;;7.13;5.00;;;8.30;99.90;;;8.84;100.00;97680.53;4924662;29;20473;-76
2023/04/25 08:20:00;;;;;;;14.93;5.50;;;8.30;99.90;;;8.79;100.00;97691.50;4924603;29;20471;-77
2023/04/25 08:22:31;;;;;;;11.40;5.30;;;8.40;99.90;;;8.76;100.00;97693.69;4923945;29;20470;-76
2023/04/25 08:25:01;;;;;;;18.27;6.00;;;8.30;99.90;;;8.79;100.00;97701.13;4925014;29;20569;-77
2023/04/25 08:27:31;;;;;;;9.87;6.00;;;8.20;99.90;;;8.76;100.00;97709.31;4926786;29;20474;-77
2023/04/25 08:30:03;;;;;;;11.50;4.53;;;8.20;99.90;;;8.75;100.00;97713.72;4923589;29;20845;-76
2023/04/25 08:32:37;;;;;;;9.27;4.20;;;8.20;99.90;;;8.65;100.00;97722.81;4927283;29;20841;-76
2023/04/25 08:35:09;;;;;;;6.00;3.60;;;8.10;99.90;;;8.53;100.00;97718.09;4925969;29;20458;-77
2023/04/25 08:37:39;;;;;;;9.73;3.80;;;8.00;99.90;;;8.53;100.00;97722.50;4926865;29;21333;-77
2023/04/25 08:40:16;;;;;;;7.63;3.90;;;8.00;99.90;;;8.53;100.00;97733.75;4927667;29;20475;-77
2023/04/25 08:42:49;;;;;;;6.10;3.50;;;8.00;99.90;;;8.52;100.00;97731.31;4928667;29;20557;-76
2023/04/25 08:45:24;;;;;;;10.33;3.90;;;8.00;99.90;;;8.53;100.00;97746.78;4926753;29;20937;-78
2023/04/25 08:47:56;;;;;;;6.67;3.43;;;8.00;99.90;;;8.44;100.00;97745.22;4926091;29;20503;-76
2023/04/25 08:50:26;;;;;;;6.83;3.00;;;7.80;99.90;;;8.52;100.00;97745.16;4927277;29;20533;-77
2023/04/25 08:53:01;;;;;;;5.40;2.70;;;7.90;99.90;;;8.49;100.00;97745.50;4926430;29;20494;-76
2023/04/25 08:55:33;;;;;;;7.57;2.93;;;7.90;99.90;;;8.48;100.00;97738.66;4926245;29;20962;-77
2023/04/25 08:58:05;;;;;;;5.70;2.70;;;7.90;99.90;;;8.63;100.00;97748.28;4926877;29;20486;-76
2023/04/25 09:00:37;;;;;;;7.03;3.20;;;8.00;99.90;;;8.75;100.00;97747.63;4927637;29;20455;-76
2023/04/25 09:03:06;;;;;;;9.80;3.57;;;8.10;99.90;;;8.73;100.00;97747.00;4926217;29;20463;-77
2023/04/25 09:05:38;;;;;;;4.47;2.93;;;8.10;99.90;;;8.84;100.00;97759.56;4926057;29;20479;-76
2023/04/25 09:08:10;;;;;;;4.20;3.33;;;8.20;99.90;;;8.93;100.00;97757.66;4926746;29;20467;-77
2023/04/25 09:10:39;;;;;;;4.97;2.80;;;8.30;99.90;;;8.90;100.00;97771.88;4927054;29;20490;-77
2023/04/25 09:13:12;;;;;;;6.60;3.27;;;8.30;99.90;;;8.96;100.00;97775.53;4926127;29;20499;-76
2023/04/25 09:15:54;;;;;;;7.53;3.20;;;8.40;99.90;;;8.97;100.00;97774.53;4925508;29;20466;-77
2023/04/25 09:18:28;;;;;;;7.03;3.00;;;8.40;99.90;;;9.05;100.00;97779.66;4926622;29;20466;-76
2023/04/25 09:21:07;;;;;;;5.83;3.50;;;8.50;99.90;;;9.13;100.00;97779.53;4926296;29;20964;-77
2023/04/25 09:23:47;;;;;;;7.90;3.53;;;8.60;99.90;;;9.21;100.00;97784.66;4926088;29;20470;-77
2023/04/25 09:26:20;;;;;;;7.40;3.00;;;8.60;99.90;;;9.26;100.00;97782.31;4925796;29;20505;-76
2023/04/25 09:28:49;;;;;;;6.00;3.13;;;8.60;99.90;;;9.36;100.00;97789.81;4926319;29;21190;-76
2023/04/25 09:31:25;;;;;;;3.30;2.10;;;8.70;99.90;;;9.26;100.00;97792.75;4926589;29;20462;-77
2023/04/25 09:34:01;;;;;;;5.27;2.40;;;8.80;99.90;;;9.31;100.00;97792.97;4924959;29;20497;-77
2023/04/25 09:36:35;;;;;;;5.73;3.00;;;8.80;99.90;;;9.42;100.00;97783.84;4927211;29;20832;-77
2023/04/25 09:39:16;;;;;;;7.47;3.47;;;8.90;99.90;;;9.50;100.00;97786.34;4926870;29;20966;-76
2023/04/25 09:41:45;;;;;;;4.40;2.40;;;9.00;99.90;;;9.44;100.00;97802.75;4925833;29;20470;-77
2023/04/25 09:44:15;;;;;;;7.13;3.70;;;9.00;99.90;;;9.48;100.00;97799.56;4925887;29;20879;-77
2023/04/25 09:46:52;;;;;;;5.50;2.80;;;9.10;99.90;;;9.46;100.00;97805.97;4926029;29;20469;-76
2023/04/25 09:49:23;;;;;;;123.83;68.60;;;8.90;99.90;;;9.34;100.00;97817.88;4924921;29;20974;-75
2023/04/25 09:51:57;;;;;;;7.17;2.77;;;8.80;99.90;;;9.25;100.00;97822.41;4925974;29;20860;-76
2023/04/25 09:54:27;;;;;;;6.73;3.20;;;8.70;99.90;;;9.28;100.00;97826.47;4926778;29;21601;-76
2023/04/25 09:56:56;;;;;;;5.13;2.70;;;8.70;99.90;;;9.20;100.00;97826.59;4924309;29;20573;-77
2023/04/25 09:59:27;;;;;;;6.77;2.83;;;8.60;99.90;;;9.18;100.00;97818.13;4909591;29;20720;-77
2023/04/25 10:02:00;;;;;;;9.57;2.80;;;8.50;99.90;;;9.24;100.00;97826.00;4924603;29;20493;-77
2023/04/25 10:04:35;;;;;;;8.73;3.50;;;8.50;99.90;;;9.34;100.00;97836.97;4925858;29;20462;-77
2023/04/25 10:07:09;;;;;;;4.27;2.70;;;8.70;99.90;;;9.44;100.00;97834.06;4925668;29;20465;-76
2023/04/25 10:09:41;;;;;;;17.10;2.90;;;8.80;99.90;;;9.44;100.00;97828.84;4925773;29;20474;-76
2023/04/25 10:12:12;;;;;;;3.73;2.57;;;8.80;99.90;;;9.38;100.00;97835.59;4924862;29;20486;-76
2023/04/25 10:14:42;;;;;;;4.50;2.50;;;8.90;99.90;;;9.35;100.00;97829.94;4908053;29;20465;-76
2023/04/25 10:17:14;;;;;;;4.23;2.63;;;8.70;99.90;;;9.40;100.00;97833.63;4924978;29;20462;-77
2023/04/25 10:19:45;;;;;;;5.27;2.40;;;8.70;99.90;;;9.44;100.00;97837.47;4925158;29;20584;-76
2023/04/25 10:22:24;;;;;;;7.00;2.80;;;8.90;99.90;;;9.50;100.00;97831.53;4922866;29;20561;-77
2023/04/25 10:24:57;;;;;;;3.73;2.20;;;8.90;99.90;;;9.60;100.00;97834.66;4925285;29;20557;-76
2023/04/25 10:27:28;;;;;;;4.80;2.77;;;9.00;99.90;;;9.70;100.00;97834.31;4925764;29;20470;-77
2023/04/25 10:30:09;;;;;;;4.83;2.70;;;9.10;99.90;;;9.69;100.00;97832.69;4924228;29;20475;-76
2023/04/25 10:32:43;;;;;;;5.50;2.20;;;9.10;99.90;;;9.75;100.00;97826.75;4923977;29;21032;-76
2023/04/25 10:35:16;;;;;;;3.53;2.70;;;9.20;99.90;;;9.81;100.00;97822.56;4926881;29;20492;-77
2023/04/25 10:38:04;;;;;;;3.93;2.40;;;9.30;99.90;;;9.78;100.00;97825.56;4925047;29;20567;-77
2023/04/25 10:40:34;;;;;;;2.67;2.30;;;9.40;99.90;;;9.77;100.00;97829.16;4926031;29;20494;-76